Time;durP1;ratioP1;P1;durP2;ratioP2;P2;SDS_P1;SDS_P2;PMS_P1;PMS_P2;Temp;Humidity;BMP_temperature;BMP_pressure;BME280_temperature;BME280_humidity;BME280_pressure;Samples;Min_cycle;Max_cycle;Signal;HPM_P1;HPM_P2
2023/01/08 00:00:08;;;;;;;80.32;43.50;;;;;;;-0.70;100.00;98079.45;1731063;82;21075;-80
2023/01/08 00:02:37;;;;;;;90.15;45.48;;;;;;;-0.68;100.00;98080.61;1730886;82;21011;-79
2023/01/08 00:05:05;;;;;;;81.22;43.95;;;;;;;-0.66;100.00;98078.55;1730952;82;21187;-77
2023/01/08 00:07:32;;;;;;;80.45;41.05;;;;;;;-0.65;100.00;98070.36;1731036;82;21035;-78
2023/01/08 00:09:58;;;;;;;83.07;41.37;;;;;;;-0.67;100.00;98079.06;1731092;82;21070;-78
2023/01/08 00:12:25;;;;;;;83.87;44.73;;;;;;;-0.68;100.00;98081.94;1731086;82;21022;-77
2023/01/08 00:14:52;;;;;;;79.62;41.90;;;;;;;-0.68;100.00;98079.28;1730901;82;21102;-80
2023/01/08 00:17:19;;;;;;;73.35;39.88;;;;;;;-0.69;100.00;98073.63;1731186;82;21023;-80
2023/01/08 00:19:46;;;;;;;76.30;41.50;;;;;;;-0.67;100.00;98070.27;1730784;82;21027;-79
2023/01/08 00:22:13;;;;;;;75.42;39.88;;;;;;;-0.68;100.00;98071.30;1731230;82;21274;-80
2023/01/08 00:24:40;;;;;;;78.45;42.60;;;;;;;-0.68;100.00;98073.95;1730808;82;21027;-77
2023/01/08 00:27:07;;;;;;;61.23;35.45;;;;;;;-0.65;100.00;98068.20;1731104;82;21310;-80
2023/01/08 00:29:34;;;;;;;64.50;33.23;;;;;;;-0.49;100.00;98064.30;1730877;82;21761;-79
2023/01/08 00:32:00;;;;;;;65.85;36.53;;;;;;;-0.30;100.00;98068.75;1731092;82;21082;-77
2023/01/08 00:34:27;;;;;;;67.05;35.88;;;;;;;-0.19;100.00;98064.10;1730764;82;21484;-78
2023/01/08 00:36:54;;;;;;;77.08;37.98;;;;;;;-0.17;100.00;98063.40;1731163;82;20991;-79
2023/01/08 00:39:21;;;;;;;77.97;41.48;;;;;;;-0.08;100.00;98058.66;1730964;82;20999;-77
2023/01/08 00:41:48;;;;;;;93.05;48.87;;;;;;;-0.08;100.00;98063.98;1731113;82;21118;-78
2023/01/08 00:44:15;;;;;;;89.55;46.08;;;;;;;-0.13;100.00;98059.80;1748776;81;21518;-78
2023/01/08 00:46:42;;;;;;;77.37;40.73;;;;;;;-0.11;100.00;98062.54;1761214;81;21023;-80
2023/01/08 00:49:09;;;;;;;59.53;29.82;;;;;;;-0.16;100.00;98062.88;1761220;81;21514;-80
2023/01/08 00:51:36;;;;;;;70.42;36.53;;;;;;;-0.15;100.00;98058.67;1761225;81;21058;-80
2023/01/08 00:54:03;;;;;;;64.17;31.95;;;;;;;-0.09;100.00;98056.48;1761294;81;21903;-77
2023/01/08 00:56:30;;;;;;;68.52;34.78;;;;;;;-0.08;100.00;98053.33;1743241;81;21060;-80
2023/01/08 00:58:57;;;;;;;74.90;36.70;;;;;;;-0.08;100.00;98051.48;1730930;82;21043;-80
2023/01/08 01:01:24;;;;;;;72.53;35.68;;;;;;;-0.06;100.00;98053.93;1730823;82;21448;-78
2023/01/08 01:03:51;;;;;;;67.20;36.95;;;;;;;-0.09;100.00;98053.00;1730990;82;21019;-80
2023/01/08 01:06:18;;;;;;;65.47;33.28;;;;;;;-0.21;100.00;98052.84;1731088;82;21835;-80
2023/01/08 01:08:44;;;;;;;63.50;35.10;;;;;;;-0.31;100.00;98055.14;1730892;82;21076;-78
2023/01/08 01:11:25;;;;;;;66.60;33.73;;;;;;;-0.40;100.00;98057.72;1730861;82;21067;-78
2023/01/08 01:13:54;;;;;;;71.12;38.53;;;;;;;-0.45;100.00;98058.33;1730973;82;21016;-77
2023/01/08 01:16:21;;;;;;;62.43;33.30;;;;;;;-0.50;100.00;98052.83;1731106;82;21023;-77
2023/01/08 01:18:48;;;;;;;62.00;34.88;;;;;;;-0.56;100.00;98050.99;1730921;82;21893;-80
2023/01/08 01:21:25;;;;;;;63.50;34.45;;;;;;;-0.61;100.00;98054.78;1730910;82;21076;-78
2023/01/08 01:23:54;;;;;;;65.15;33.95;;;;;;;-0.64;100.00;98053.88;1730349;82;21016;-78
2023/01/08 01:26:21;;;;;;;49.80;26.80;;;;;;;-0.62;100.00;98057.95;1731263;82;21031;-78
2023/01/08 01:28:51;;;;;;;64.47;33.38;;;;;;;-0.62;100.00;98056.63;1731012;82;21011;-77
2023/01/08 01:31:18;;;;;;;60.30;30.95;;;;;;;-0.64;100.00;98045.38;1730438;82;20988;-77
2023/01/08 01:33:45;;;;;;;61.02;32.40;;;;;;;-0.63;100.00;98043.53;1730980;82;21009;-77
2023/01/08 01:36:13;;;;;;;68.62;36.85;;;;;;;-0.62;100.00;98047.82;1731103;82;21004;-79
2023/01/08 01:38:46;;;;;;;54.53;28.63;;;;;;;-0.61;100.00;98036.96;1731255;82;21075;-79
2023/01/08 01:41:33;;;;;;;58.85;29.92;;;;;;;-0.58;100.00;98039.23;1730523;82;21497;-81
2023/01/08 01:44:40;;;;;;;46.60;29.18;;;;;;;-0.54;100.00;98031.62;1744129;81;21020;-78
2023/01/08 01:47:36;;;;;;;52.23;29.95;;;;;;;-0.43;100.00;98032.31;1745735;82;20985;-77
2023/01/08 01:50:11;;;;;;;60.67;32.45;;;;;;;-0.29;100.00;98026.45;1768823;81;21084;-78
2023/01/08 01:52:46;;;;;;;57.65;28.20;;;;;;;-0.30;100.00;98022.97;1745896;81;21012;-78
2023/01/08 01:55:13;;;;;;;48.63;27.02;;;;;;;-0.30;100.00;98015.49;1767442;81;20980;-76
2023/01/08 01:57:44;;;;;;;49.25;25.40;;;;;;;-0.22;100.00;98015.77;1744504;81;21186;-78
2023/01/08 02:00:12;;;;;;;53.17;27.05;;;;;;;-0.22;100.00;98008.60;1761043;81;21496;-78
2023/01/08 02:02:39;;;;;;;54.75;29.50;;;;;;;-0.23;100.00;98008.81;1731179;81;21031;-76
2023/01/08 02:05:07;;;;;;;37.50;18.20;;;;;;;-0.25;100.00;98002.38;1761342;81;21074;-76
2023/01/08 02:07:49;;;;;;;47.55;22.40;;;;;;;-0.22;100.00;97997.13;1761448;81;21011;-76
2023/01/08 02:10:26;;;;;;;59.25;38.53;;;;;;;-0.18;100.00;97991.16;1731215;81;21297;-78
2023/01/08 02:12:57;;;;;;;52.75;29.15;;;;;;;-0.14;100.00;97987.58;1761347;81;21455;-76
2023/01/08 02:15:56;;;;;;;52.03;24.72;;;;;;;-0.17;100.00;97981.31;1760734;81;22072;-76
2023/01/08 02:18:37;;;;;;;47.43;25.90;;;;;;;-0.26;100.00;97984.73;1761525;81;27015;-76
2023/01/08 02:21:09;;;;;;;47.00;26.77;;;;;;;-0.36;100.00;97967.06;1761450;81;21007;-78
2023/01/08 02:23:50;;;;;;;49.90;26.20;;;;;;;-0.41;100.00;97974.37;1761384;81;21742;-78
2023/01/08 02:26:29;;;;;;;48.00;24.32;;;;;;;-0.45;100.00;97974.47;1760790;81;21153;-76
2023/01/08 02:29:13;;;;;;;47.90;24.07;;;;;;;-0.50;100.00;97974.30;1761444;81;21030;-76
2023/01/08 02:31:41;;;;;;;44.67;23.12;;;;;;;-0.52;100.00;97975.52;1761200;81;21479;-76
2023/01/08 02:34:08;;;;;;;40.55;23.50;;;;;;;-0.57;100.00;97968.17;1761292;81;21019;-76
2023/01/08 02:36:49;;;;;;;43.45;24.32;;;;;;;-0.66;100.00;97965.44;1761260;81;21189;-76
2023/01/08 02:39:28;;;;;;;48.45;24.77;;;;;;;-0.73;100.00;97968.11;1761349;81;21012;-78
2023/01/08 02:42:43;;;;;;;45.85;23.85;;;;;;;-0.79;100.00;97966.27;1761450;81;21062;-76
2023/01/08 02:45:27;;;;;;;40.15;22.73;;;;;;;-0.89;100.00;97967.23;1732106;81;21432;-78
2023/01/08 02:48:08;;;;;;;41.37;22.00;;;;;;;-1.00;100.00;97966.02;1719056;82;20991;-78
2023/01/08 02:50:52;;;;;;;43.83;25.60;;;;;;;-1.07;100.00;97975.03;1731099;82;21019;-78
2023/01/08 02:53:29;;;;;;;50.85;28.25;;;;;;;-1.07;100.00;97969.71;1725861;83;21027;-78
2023/01/08 02:55:59;;;;;;;67.55;33.25;;;;;;;-1.15;100.00;97966.75;1768688;80;21047;-78
2023/01/08 02:58:28;;;;;;;48.78;26.85;;;;;;;-1.16;100.00;97971.25;1780138;80;21471;-78
2023/01/08 03:00:55;;;;;;;46.68;26.17;;;;;;;-1.18;100.00;97967.17;1780251;80;21030;-77
2023/01/08 03:03:26;;;;;;;42.33;24.70;;;;;;;-1.15;100.00;97974.22;1761527;81;21448;-76
2023/01/08 03:05:57;;;;;;;46.92;25.02;;;;;;;-1.11;100.00;97973.80;1761357;81;21274;-76
2023/01/08 03:08:24;;;;;;;41.05;23.77;;;;;;;-1.10;100.00;97977.60;1761403;81;22023;-76
2023/01/08 03:10:59;;;;;;;45.88;23.30;;;;;;;-1.09;100.00;97975.76;1761289;81;21012;-76
2023/01/08 03:13:58;;;;;;;40.12;22.50;;;;;;;-1.08;100.00;97966.23;1761521;81;21465;-78
2023/01/08 03:16:42;;;;;;;38.45;20.75;;;;;;;-1.09;100.00;97970.44;1761509;81;21190;-76
2023/01/08 03:19:22;;;;;;;47.17;26.95;;;;;;;-1.16;100.00;97959.80;1759190;81;20999;-78
2023/01/08 03:21:50;;;;;;;53.45;29.70;;;;;;;-1.13;100.00;97966.02;1761513;81;21023;-76
2023/01/08 03:24:21;;;;;;;54.98;28.73;;;;;;;-1.20;100.00;97966.53;1761181;81;21003;-76
2023/01/08 03:26:48;;;;;;;44.23;23.40;;;;;;;-1.22;100.00;97965.93;1760563;81;20996;-77
2023/01/08 03:29:17;;;;;;;45.05;22.52;;;;;;;-1.21;100.00;97952.94;1761243;81;21176;-76
2023/01/08 03:31:44;;;;;;;33.78;20.48;;;;;;;-1.23;100.00;97957.66;1761394;81;21011;-76
2023/01/08 03:34:11;;;;;;;33.58;21.00;;;;;;;-1.26;100.00;97948.26;1761299;81;21043;-78
2023/01/08 03:36:39;;;;;;;37.38;19.17;;;;;;;-1.27;100.00;97940.49;1761316;81;21015;-78
2023/01/08 03:39:32;;;;;;;41.45;21.40;;;;;;;-1.30;100.00;97935.05;1761388;81;21027;-76
2023/01/08 03:42:02;;;;;;;35.45;19.67;;;;;;;-1.34;100.00;97941.00;1761161;81;21503;-76
2023/01/08 03:44:29;;;;;;;39.63;20.37;;;;;;;-1.38;100.00;97931.79;1740611;81;21610;-78
2023/01/08 03:46:55;;;;;;;32.78;19.52;;;;;;;-1.39;100.00;97940.27;1731024;82;20991;-76
2023/01/08 03:49:24;;;;;;;43.17;19.65;;;;;;;-1.42;100.00;97941.52;1731040;82;21449;-76
2023/01/08 03:51:51;;;;;;;37.35;17.92;;;;;;;-1.35;100.00;97938.04;1731228;82;21566;-78
2023/01/08 03:54:22;;;;;;;37.73;20.90;;;;;;;-1.34;100.00;97933.84;1730921;82;21076;-78
2023/01/08 03:56:48;;;;;;;33.08;18.87;;;;;;;-1.34;100.00;97931.19;1752696;81;21477;-78
2023/01/08 03:59:16;;;;;;;33.85;17.27;;;;;;;-1.35;100.00;97928.22;1761360;81;21067;-78
2023/01/08 04:01:43;;;;;;;35.17;18.87;;;;;;;-1.34;100.00;97926.38;1761337;81;21486;-76
2023/01/08 04:04:10;;;;;;;38.63;19.30;;;;;;;-1.36;100.00;97925.78;1761379;81;21015;-78
2023/01/08 04:06:37;;;;;;;37.38;18.98;;;;;;;-1.43;100.00;97921.27;1761480;81;21779;-77
2023/01/08 04:09:04;;;;;;;40.78;19.10;;;;;;;-1.44;100.00;97922.30;1761192;81;21066;-78
2023/01/08 04:11:31;;;;;;;46.37;21.15;;;;;;;-1.47;100.00;97920.55;1761404;81;21634;-78
2023/01/08 04:13:58;;;;;;;37.28;20.50;;;;;;;-1.50;100.00;97919.13;1761439;81;21066;-78
2023/01/08 04:16:24;;;;;;;43.45;22.80;;;;;;;-1.53;100.00;97922.20;1761376;81;20999;-76
2023/01/08 04:18:51;;;;;;;47.73;26.20;;;;;;;-1.54;100.00;97921.05;1761417;81;21200;-78
2023/01/08 04:21:18;;;;;;;39.55;21.70;;;;;;;-1.56;100.00;97913.80;1761426;81;21011;-76
2023/01/08 04:23:46;;;;;;;38.85;22.13;;;;;;;-1.57;100.00;97913.50;1761330;81;21443;-76
2023/01/08 04:26:13;;;;;;;38.55;18.25;;;;;;;-1.61;100.00;97915.77;1761188;81;20999;-76
2023/01/08 04:28:39;;;;;;;32.10;18.57;;;;;;;-1.60;100.00;97917.91;1761249;81;21027;-77
2023/01/08 04:31:07;;;;;;;34.33;20.48;;;;;;;-1.59;100.00;97917.70;1761311;81;21078;-77
2023/01/08 04:33:34;;;;;;;40.17;20.10;;;;;;;-1.54;100.00;97919.24;1731012;81;20992;-78
2023/01/08 04:36:02;;;;;;;52.05;25.10;;;;;;;-1.55;100.00;97914.92;1761377;81;21447;-78
2023/01/08 04:38:29;;;;;;;50.33;26.35;;;;;;;-1.57;100.00;97912.17;1761292;81;21015;-78
2023/01/08 04:40:59;;;;;;;51.65;26.87;;;;;;;-1.65;100.00;97905.22;1761416;81;21141;-76
2023/01/08 04:43:26;;;;;;;46.20;23.83;;;;;;;-1.67;100.00;97896.64;1752835;81;21041;-78
2023/01/08 04:45:58;;;;;;;49.48;24.45;;;;;;;-1.67;100.00;97903.80;1731016;82;22050;-78
2023/01/08 04:48:26;;;;;;;44.70;25.32;;;;;;;-1.68;100.00;97912.28;1731058;82;21035;-76
2023/01/08 04:50:53;;;;;;;46.03;25.40;;;;;;;-1.66;100.00;97916.05;1731323;82;21035;-78
2023/01/08 04:53:20;;;;;;;44.45;23.73;;;;;;;-1.64;100.00;97920.65;1731022;82;21476;-76
2023/01/08 04:55:47;;;;;;;47.88;25.50;;;;;;;-1.65;100.00;97919.83;1739829;81;21083;-78
2023/01/08 04:58:14;;;;;;;41.73;22.52;;;;;;;-1.65;100.00;97914.52;1750530;81;20985;-78
2023/01/08 05:00:41;;;;;;;40.52;19.85;;;;;;;-1.65;100.00;97913.19;1771115;81;21054;-76
2023/01/08 05:03:08;;;;;;;40.28;21.60;;;;;;;-1.64;100.00;97911.34;1770930;81;21036;-77
2023/01/08 05:05:35;;;;;;;41.90;21.37;;;;;;;-1.71;100.00;97902.89;1771177;81;21020;-78
2023/01/08 05:08:03;;;;;;;44.93;21.95;;;;;;;-1.69;100.00;97903.19;1750334;82;21107;-76
2023/01/08 05:10:29;;;;;;;35.80;20.37;;;;;;;-1.71;100.00;97904.22;1771078;81;21016;-78
2023/01/08 05:12:59;;;;;;;40.30;18.85;;;;;;;-1.69;100.00;97912.49;1750345;82;21060;-78
2023/01/08 05:15:26;;;;;;;39.50;20.65;;;;;;;-1.68;100.00;97900.84;1771138;81;21008;-76
2023/01/08 05:18:04;;;;;;;34.85;19.32;;;;;;;-1.69;100.00;97900.02;1750465;82;21069;-76
2023/01/08 05:20:32;;;;;;;33.48;16.60;;;;;;;-1.71;100.00;97894.92;1771219;81;21552;-76
2023/01/08 05:22:59;;;;;;;27.30;15.35;;;;;;;-1.69;100.00;97893.89;1750302;82;21040;-76
2023/01/08 05:25:26;;;;;;;29.48;14.75;;;;;;;-1.65;100.00;97885.29;1771195;81;20980;-78
2023/01/08 05:27:52;;;;;;;25.45;15.08;;;;;;;-1.64;100.00;97878.95;1750393;82;20984;-78
2023/01/08 05:30:19;;;;;;;28.23;16.52;;;;;;;-1.64;100.00;97880.80;1771074;81;21007;-78
2023/01/08 05:32:46;;;;;;;29.42;17.35;;;;;;;-1.64;100.00;97882.94;1750460;82;21167;-78
2023/01/08 05:35:13;;;;;;;34.33;16.50;;;;;;;-1.65;100.00;97873.33;1771140;81;21039;-78
2023/01/08 05:37:40;;;;;;;34.27;19.23;;;;;;;-1.64;100.00;97874.15;1750368;82;21555;-78
2023/01/08 05:40:08;;;;;;;38.45;23.25;;;;;;;-1.67;100.00;97871.40;1771276;81;20992;-75
2023/01/08 05:42:35;;;;;;;34.40;18.07;;;;;;;-1.67;100.00;97872.73;1750809;81;21036;-78
2023/01/08 05:45:07;;;;;;;38.53;21.57;;;;;;;-1.70;100.00;97866.51;1721634;82;21036;-76
2023/01/08 05:47:34;;;;;;;45.08;22.60;;;;;;;-1.72;100.00;97867.20;1738823;82;21012;-77
2023/01/08 05:50:01;;;;;;;53.75;25.85;;;;;;;-1.77;100.00;97865.17;1739237;82;21377;-76
2023/01/08 05:52:28;;;;;;;51.23;28.65;;;;;;;-1.80;100.00;97868.73;1738769;82;21008;-78
2023/01/08 05:54:55;;;;;;;49.95;26.15;;;;;;;-1.82;100.00;97868.94;1738864;81;21040;-76
2023/01/08 05:57:22;;;;;;;46.60;27.35;;;;;;;-1.81;100.00;97862.61;1767729;81;21015;-76
2023/01/08 05:59:49;;;;;;;52.90;27.10;;;;;;;-1.80;100.00;97861.58;1769175;81;22044;-78
2023/01/08 06:02:16;;;;;;;42.03;24.05;;;;;;;-1.77;100.00;97865.17;1769432;81;21015;-78
2023/01/08 06:04:43;;;;;;;61.50;32.33;;;;;;;-1.79;100.00;97859.77;1769305;81;22147;-78
2023/01/08 06:07:10;;;;;;;64.75;34.20;;;;;;;-1.76;100.00;97863.33;1769412;81;21010;-76
2023/01/08 06:09:36;;;;;;;70.60;36.20;;;;;;;-1.79;100.00;97866.41;1769300;81;21168;-78
2023/01/08 06:12:04;;;;;;;64.37;33.90;;;;;;;-1.90;100.00;97853.72;1769438;81;21027;-78
2023/01/08 06:14:30;;;;;;;63.02;32.75;;;;;;;-1.94;100.00;97862.62;1769285;81;21023;-78
2023/01/08 06:16:57;;;;;;;57.05;31.95;;;;;;;-1.94;100.00;97866.60;1769445;81;20968;-76
2023/01/08 06:19:24;;;;;;;47.95;26.33;;;;;;;-1.91;100.00;97869.35;1769193;81;21029;-76
2023/01/08 06:21:52;;;;;;;47.78;25.72;;;;;;;-1.90;100.00;97865.16;1769417;81;21178;-76
2023/01/08 06:24:18;;;;;;;41.98;22.15;;;;;;;-1.88;100.00;97855.66;1769074;81;21011;-78
2023/01/08 06:26:45;;;;;;;43.48;22.32;;;;;;;-1.85;100.00;97864.05;1769239;81;21051;-78
2023/01/08 06:29:12;;;;;;;40.65;23.22;;;;;;;-1.85;100.00;97853.42;1769196;81;21002;-76
2023/01/08 06:31:39;;;;;;;37.73;21.55;;;;;;;-1.80;100.00;97853.61;1769484;81;21022;-78
2023/01/08 06:34:06;;;;;;;41.88;22.37;;;;;;;-1.84;100.00;97864.86;1769394;81;21059;-78
2023/01/08 06:36:33;;;;;;;51.33;27.35;;;;;;;-1.88;100.00;97866.28;1769297;81;21509;-76
2023/01/08 06:39:00;;;;;;;47.43;25.55;;;;;;;-1.90;100.00;97863.02;1769299;81;21003;-77
2023/01/08 06:41:27;;;;;;;49.85;26.60;;;;;;;-1.90;100.00;97867.00;1769494;81;21006;-76
2023/01/08 06:43:54;;;;;;;51.80;29.18;;;;;;;-1.95;100.00;97860.98;1755886;81;21045;-76
2023/01/08 06:48:02;;;;;;;47.50;28.40;;;;;;;-1.91;100.00;97854.85;104153;1286;600938;-78
2023/01/08 06:50:29;;;;;;;44.50;24.60;;;;;;;-1.93;100.00;97859.80;105540;1267;60000;-79
2023/01/08 06:52:56;;;;;;;36.00;21.90;;;;;;;-1.88;100.00;97857.70;105472;1267;60162;-79
2023/01/08 06:55:22;;;;;;;30.40;18.50;;;;;;;-1.83;100.00;97859.59;105559;1267;59305;-80
2023/01/08 06:57:53;;;;;;;31.40;18.20;;;;;;;-1.84;100.00;97856.89;105586;1267;71034;-77
2023/01/08 07:00:22;;;;;;;44.10;24.20;;;;;;;-1.83;100.00;97856.93;105585;1267;126005;-78
2023/01/08 07:02:49;;;;;;;46.20;25.30;;;;;;;-1.81;100.00;97861.34;105726;1263;59797;-79
2023/01/08 07:05:16;;;;;;;59.00;29.10;;;;;;;-1.83;100.00;97861.34;105714;1264;58782;-77
2023/01/08 07:07:42;;;;;;;47.80;27.00;;;;;;;-1.82;100.00;97864.04;105790;1263;58979;-79
2023/01/08 07:10:09;;;;;;;52.40;31.10;;;;;;;-1.82;100.00;97863.88;105744;1263;57856;-79
2023/01/08 07:12:35;;;;;;;44.60;26.40;;;;;;;-1.83;100.00;97862.57;105717;1263;59709;-79
2023/01/08 07:15:02;;;;;;;42.50;23.40;;;;;;;-1.78;100.00;97861.60;105626;1264;59744;-77
2023/01/08 07:17:28;;;;;;;38.70;21.40;;;;;;;-1.75;100.00;97858.16;105803;1263;59684;-78
2023/01/08 07:19:55;;;;;;;31.40;18.50;;;;;;;-1.71;100.00;97851.41;105728;1264;59215;-79
2023/01/08 07:22:23;;;;;;;53.10;26.80;;;;;;;-1.66;100.00;97850.39;105804;1264;60533;-77
2023/01/08 07:24:49;;;;;;;40.70;24.80;;;;;;;-1.65;100.00;97848.95;105833;1263;63940;-77
2023/01/08 07:27:15;;;;;;;45.20;24.90;;;;;;;-1.57;100.00;97849.44;105824;1263;60403;-79
2023/01/08 07:29:42;;;;;;;59.70;37.50;;;;;;;-1.53;100.00;97849.69;106281;1256;60312;-80
2023/01/08 07:32:08;;;;;;;51.50;29.90;;;;;;;-1.53;100.00;97843.63;106355;1257;60511;-79
2023/01/08 07:34:35;;;;;;;51.40;29.70;;;;;;;-1.58;100.00;97844.20;106362;1257;58508;-77
2023/01/08 07:37:02;;;;;;;70.10;41.10;;;;;;;-1.61;100.00;97842.67;106376;1257;59175;-77
2023/01/08 07:39:28;;;;;;;67.20;39.40;;;;;;;-1.59;100.00;97841.59;106210;1260;59605;-77
2023/01/08 07:41:55;;;;;;;69.50;38.30;;;;;;;-1.55;100.00;97834.85;106166;1258;59341;-80
2023/01/08 07:44:21;;;;;;;58.70;34.90;;;;;;;-1.55;100.00;97835.80;106167;1257;59864;-77
2023/01/08 07:46:48;;;;;;;63.60;34.40;;;;;;;-1.54;100.00;97834.39;106133;1258;59725;-78
2023/01/08 07:49:14;;;;;;;53.60;31.90;;;;;;;-1.48;100.00;97832.13;106156;1258;59733;-77
2023/01/08 07:51:40;;;;;;;51.60;29.40;;;;;;;-1.41;100.00;97828.44;106127;1257;59715;-79
2023/01/08 07:54:07;;;;;;;51.40;27.50;;;;;;;-1.33;100.00;97820.37;106182;1261;58877;-79
2023/01/08 07:56:34;;;;;;;50.00;27.40;;;;;;;-1.25;100.00;97819.65;106187;1258;59225;-78
2023/01/08 07:59:00;;;;;;;55.80;29.30;;;;;;;-1.19;100.00;97814.55;106152;1258;60140;-79
2023/01/08 08:01:26;;;;;;;52.80;29.60;;;;;;;-1.16;100.00;97818.23;106122;1258;59026;-77
2023/01/08 08:03:53;;;;;;;55.70;27.50;;;;;;;-1.15;100.00;97814.38;106104;1264;58856;-79
2023/01/08 08:06:19;;;;;;;71.50;39.60;;;;;;;-1.09;100.00;97810.44;106149;1258;60397;-79
2023/01/08 08:08:46;;;;;;;66.10;37.30;;;;;;;-1.07;100.00;97804.24;106149;1259;59337;-77
2023/01/08 08:11:12;;;;;;;69.10;39.60;;;;;;;-1.05;100.00;97804.67;106268;1256;60451;-78
2023/01/08 08:13:43;;;;;;;102.90;47.80;;;;;;;-1.01;100.00;97805.79;106293;1256;59302;-79
2023/01/08 08:16:10;;;;;;;83.50;45.50;;;;;;;-0.94;100.00;97795.19;106276;1256;60284;-77
2023/01/08 08:18:36;;;;;;;80.10;43.50;;;;;;;-0.85;100.00;97782.91;106304;1256;58800;-78
2023/01/08 08:21:03;;;;;;;65.70;40.20;;;;;;;-0.78;100.00;97785.16;106252;1256;58323;-77
2023/01/08 08:23:31;;;;;;;66.80;38.70;;;;;;;-0.69;100.00;97782.81;106343;1256;72294;-77
2023/01/08 08:25:57;;;;;;;62.70;36.30;;;;;;;-0.57;100.00;97773.66;106295;1256;72529;-80
2023/01/08 08:28:24;;;;;;;55.80;33.90;;;;;;;-0.45;100.00;97770.64;106286;1256;59205;-79
2023/01/08 08:30:50;;;;;;;72.10;34.70;;;;;;;-0.35;100.00;97768.95;106157;1262;59630;-79
2023/01/08 08:33:16;;;;;;;65.80;34.20;;;;;;;-0.23;100.00;97763.06;106169;1256;59507;-79
2023/01/08 08:35:48;;;;;;;69.10;35.30;;;;;;;-0.14;100.00;97762.74;106265;1256;58221;-79
2023/01/08 08:38:14;;;;;;;61.90;33.60;;;;;;;-0.01;100.00;97763.24;106302;1256;72633;-79
2023/01/08 08:40:41;;;;;;;66.90;34.80;;;;;;;0.10;100.00;97758.88;106277;1256;60315;-79
2023/01/08 08:43:08;;;;;;;61.50;33.60;;;;;;;0.23;100.00;97755.03;106166;1258;60334;-79
2023/01/08 08:45:35;;;;;;;61.70;32.80;;;;;;;0.36;100.00;97748.38;106089;1257;71925;-79
2023/01/08 08:48:03;;;;;;;50.80;28.80;;;;;;;0.49;100.00;97745.42;106125;1259;69785;-79
2023/01/08 08:50:30;;;;;;;68.60;35.10;;;;;;;0.66;100.00;97748.10;106068;1258;72620;-79
2023/01/08 08:53:00;;;;;;;62.10;32.50;;;;;;;0.80;100.00;97742.80;106175;1257;59301;-77
2023/01/08 08:55:27;;;;;;;48.60;29.50;;;;;;;0.95;100.00;97738.56;106120;1256;60655;-77
2023/01/08 08:57:53;;;;;;;47.80;29.40;;;;;;;1.11;100.00;97739.41;106334;1256;72878;-77
2023/01/08 09:00:20;;;;;;;77.10;47.50;;;;;;;1.29;100.00;97737.23;106348;1256;60519;-77
2023/01/08 09:02:48;;;;;;;58.20;35.60;;;;;;;1.52;100.00;97733.29;106301;1256;60392;-79
2023/01/08 09:05:15;;;;;;;63.30;37.10;;;;;;;1.71;100.00;97731.30;106291;1256;59746;-78
2023/01/08 09:07:41;;;;;;;69.70;38.70;;;;;;;1.91;100.00;97731.80;106286;1256;59395;-80
2023/01/08 09:10:08;;;;;;;46.90;29.40;;;;;;;2.17;100.00;97729.10;106394;1260;59405;-79
2023/01/08 09:12:34;;;;;;;41.70;26.00;;;;;;;2.36;100.00;97726.88;106364;1260;60515;-79
2023/01/08 09:15:00;;;;;;;44.90;25.30;;;;;;;2.44;100.00;97727.98;106354;1256;60550;-79
2023/01/08 09:17:27;;;;;;;56.20;29.20;;;;;;;2.52;100.00;97729.60;106314;1256;59095;-79
2023/01/08 09:19:53;;;;;;;39.60;24.20;;;;;;;2.62;100.00;97727.16;106300;1256;60321;-80
2023/01/08 09:22:20;;;;;;;60.20;32.80;;;;;;;2.70;100.00;97723.98;106356;1256;59326;-79
2023/01/08 09:24:46;;;;;;;69.50;39.20;;;;;;;2.76;100.00;97717.86;106143;1256;59297;-80
2023/01/08 09:27:13;;;;;;;56.50;38.00;;;;;;;2.95;100.00;97711.48;106323;1256;59362;-80
2023/01/08 09:29:39;;;;;;;66.50;40.70;;;;;;;3.07;100.00;97706.73;106325;1256;59746;-78
2023/01/08 09:32:06;;;;;;;52.30;32.90;;;;;;;3.20;100.00;97703.75;106327;1256;59677;-78
2023/01/08 09:34:35;;;;;;;42.60;27.00;;;;;;;3.29;100.00;97703.96;106092;1257;59746;-80
2023/01/08 09:37:02;;;;;;;53.30;29.50;;;;;;;3.43;100.00;97704.27;106401;1256;71081;-78
2023/01/08 09:39:28;;;;;;;70.40;35.70;;;;;;;3.49;100.00;97698.48;106142;1261;73071;-78
2023/01/08 09:41:54;;;;;;;42.40;25.50;;;;;;;3.52;100.00;97692.23;106303;1256;59615;-78
2023/01/08 09:44:23;;;;;;;31.20;19.00;;;;;;;3.54;100.00;97685.55;106203;1257;60394;-78
2023/01/08 09:46:49;;;;;;;37.40;23.50;;;;;;;3.53;100.00;97682.75;106117;1259;71763;-78
2023/01/08 09:49:28;;;;;;;43.50;24.60;;;;;;;3.55;100.00;97681.77;106202;1257;70872;-78
2023/01/08 09:51:54;;;;;;;61.90;33.00;;;;;;;3.63;100.00;97679.06;106229;1259;71369;-80
2023/01/08 09:54:21;;;;;;;32.80;19.80;;;;;;;3.69;100.00;97679.81;106075;1259;59645;-78
2023/01/08 09:56:47;;;;;;;29.50;18.80;;;;;;;3.78;100.00;97671.36;106124;1257;59611;-79
2023/01/08 09:59:15;;;;;;;37.80;21.30;;;;;;;3.86;100.00;97668.65;106178;1256;59599;-78
2023/01/08 10:01:44;;;;;;;28.90;17.40;;;;;;;3.93;100.00;97662.42;106324;1256;70526;-80
2023/01/08 10:04:17;;;;;;;36.20;20.30;;;;;;;4.02;100.00;97652.80;106118;1256;71378;-80
2023/01/08 10:06:48;;;;;;;37.90;20.40;;;;;;;4.13;100.00;97649.52;106305;1256;58621;-79
2023/01/08 10:09:15;;;;;;;24.30;16.70;;;;;;;4.25;100.00;97647.21;106369;1256;60908;-78
2023/01/08 10:11:43;;;;;;;38.90;21.60;;;;;;;4.34;100.00;97644.43;106340;1260;59749;-77
2023/01/08 10:14:20;;;;;;;34.50;21.20;;;;;;;4.46;100.00;97636.38;106158;1256;71041;-78
2023/01/08 10:16:47;;;;;;;84.90;52.60;;;;;;;4.57;100.00;97626.76;106378;1256;71606;-76
2023/01/08 10:19:13;;;;;;;58.00;34.60;;;;;;;4.69;100.00;97625.28;106334;1256;60487;-76
2023/01/08 10:21:40;;;;;;;51.60;31.50;;;;;;;4.79;100.00;97621.31;106320;1256;60497;-78
2023/01/08 10:24:06;;;;;;;260.40;150.60;;;;;;;4.87;100.00;97617.36;106324;1256;60423;-78
2023/01/08 10:26:35;;;;;;;69.80;43.30;;;;;;;4.96;100.00;97614.45;106319;1260;58209;-76
2023/01/08 10:29:16;;;;;;;187.90;101.10;;;;;;;5.02;100.00;97613.55;106196;1256;71161;-76
2023/01/08 10:31:46;;;;;;;34.00;21.90;;;;;;;5.09;100.00;97600.40;106187;1256;59738;-76
2023/01/08 10:34:24;;;;;;;25.80;15.40;;;;;;;5.08;100.00;97594.98;106321;1256;60538;-79
2023/01/08 10:36:51;;;;;;;21.50;14.30;;;;;;;5.14;100.00;97588.95;106120;1257;71736;-78
2023/01/08 10:39:21;;;;;;;24.30;16.60;;;;;;;5.15;100.00;97588.00;106300;1261;69844;-76
2023/01/08 10:41:48;;;;;;;23.10;15.50;;;;;;;5.12;100.00;97584.53;106310;1256;72647;-78
2023/01/08 10:44:16;;;;;;;29.40;17.60;;;;;;;5.10;100.00;97580.15;106100;1257;59821;-76
2023/01/08 10:46:48;;;;;;;25.70;15.60;;;;;;;5.07;100.00;97571.43;106105;1259;60340;-76
2023/01/08 10:49:26;;;;;;;20.90;12.80;;;;;;;5.03;100.00;97564.63;106139;1261;71880;-76
2023/01/08 10:51:52;;;;;;;56.50;36.70;;;;;;;4.98;100.00;97558.89;106299;1257;70117;-78
2023/01/08 10:54:39;;;;;;;56.10;37.30;;;;;;;4.98;100.00;97560.13;106280;1256;72553;-78
2023/01/08 10:57:27;;;;;;;39.80;26.20;;;;;;;5.06;100.00;97555.48;106400;1256;60022;-77
2023/01/08 10:59:54;;;;;;;32.40;18.40;;;;;;;5.11;100.00;97546.52;106338;1257;61153;-76
2023/01/08 11:02:33;;;;;;;26.00;15.50;;;;;;;5.14;100.00;97541.15;106403;1258;73814;-78
2023/01/08 11:05:00;;;;;;;39.10;16.50;;;;;;;5.13;100.00;97528.46;106426;1256;70994;-78
2023/01/08 11:07:27;;;;;;;30.90;16.90;;;;;;;5.16;100.00;97521.60;106279;1256;71529;-76
2023/01/08 11:09:53;;;;;;;32.50;18.30;;;;;;;5.20;100.00;97512.29;106056;1257;60151;-76
2023/01/08 11:12:39;;;;;;;32.40;19.30;;;;;;;5.27;100.00;97507.77;106289;1256;60416;-76
2023/01/08 11:15:22;;;;;;;33.00;16.30;;;;;;;5.38;100.00;97507.04;106293;1257;72794;-76
2023/01/08 11:17:49;;;;;;;28.30;16.60;;;;;;;5.50;100.00;97504.86;106163;1262;71111;-76